createdAt,value
2022-08-28T00:00:47.089Z,61.41
2022-08-28T00:03:15.592Z,61.34
2022-08-28T00:05:45.282Z,61.54
2022-08-28T00:08:13.087Z,61.35
2022-08-28T00:10:41.276Z,61.01
2022-08-28T00:13:09.055Z,61.30
2022-08-28T00:15:36.711Z,61.46
2022-08-28T00:18:05.002Z,61.31
2022-08-28T00:20:34.077Z,61.52
2022-08-28T00:23:01.820Z,61.05
2022-08-28T00:25:29.506Z,61.43
2022-08-28T00:27:57.484Z,61.16
2022-08-28T00:30:27.450Z,61.18
2022-08-28T00:32:55.259Z,61.44
2022-08-28T00:35:23.538Z,61.04
2022-08-28T00:37:51.964Z,61.41
2022-08-28T00:40:30.424Z,61.41
2022-08-28T00:43:01.105Z,61.68
2022-08-28T00:45:28.804Z,61.42
2022-08-28T00:47:56.846Z,61.65
2022-08-28T00:50:24.661Z,61.35
2022-08-28T00:52:51.334Z,61.13
2022-08-28T00:55:19.070Z,61.85
2022-08-28T00:57:48.730Z,61.69
2022-08-28T01:00:16.651Z,61.59
2022-08-28T01:02:44.555Z,61.26
2022-08-28T01:05:12.294Z,61.63
2022-08-28T01:07:39.962Z,61.47
2022-08-28T01:10:08.438Z,61.11
2022-08-28T01:12:36.031Z,61.28
2022-08-28T01:15:03.681Z,61.44
2022-08-28T01:17:31.381Z,61.67
2022-08-28T01:19:59.103Z,61.24
2022-08-28T01:22:26.941Z,61.48
2022-08-28T01:24:55.072Z,61.71
2022-08-28T01:27:25.106Z,61.68
2022-08-28T01:29:52.867Z,61.39
2022-08-28T01:32:20.674Z,61.77
2022-08-28T01:34:48.352Z,61.88
2022-08-28T01:37:16.019Z,62.15
2022-08-28T01:39:44.063Z,61.96
2022-08-28T01:42:11.788Z,62.26
2022-08-28T01:44:39.418Z,61.82
2022-08-28T01:47:07.129Z,62.46
2022-08-28T01:49:35.223Z,62.33
2022-08-28T01:52:03.432Z,62.87
2022-08-28T01:54:31.365Z,63.01
2022-08-28T01:56:59.030Z,63.18
2022-08-28T01:59:27.121Z,63.02
2022-08-28T02:01:55.497Z,63.31
2022-08-28T02:04:31.777Z,63.61
2022-08-28T02:07:00.060Z,63.21
2022-08-28T02:09:28.168Z,63.19
2022-08-28T02:11:57.568Z,63.31
2022-08-28T02:14:25.292Z,62.56
2022-08-28T02:16:53.155Z,62.78
2022-08-28T02:19:21.508Z,62.70
2022-08-28T02:21:49.180Z,63.04
2022-08-28T02:24:17.793Z,62.82
2022-08-28T02:26:45.787Z,62.86
2022-08-28T02:29:13.993Z,63.18
2022-08-28T02:31:41.639Z,62.83
2022-08-28T02:34:09.687Z,63.10
2022-08-28T02:36:37.309Z,63.43
2022-08-28T02:39:05.472Z,63.10
2022-08-28T02:41:33.102Z,63.59
2022-08-28T02:44:00.879Z,63.78
2022-08-28T02:46:28.598Z,63.36
2022-08-28T02:48:56.724Z,63.45
2022-08-28T02:51:24.438Z,63.34
2022-08-28T02:53:52.448Z,63.36
2022-08-28T02:56:20.173Z,63.32
2022-08-28T02:58:48.265Z,63.18
2022-08-28T03:01:15.981Z,63.67
2022-08-28T03:03:43.678Z,63.11
2022-08-28T03:06:12.382Z,63.89
2022-08-28T03:08:40.408Z,63.87
2022-08-28T03:11:08.221Z,63.47
2022-08-28T03:13:35.816Z,63.58
2022-08-28T03:16:04.940Z,63.59
2022-08-28T03:18:33.310Z,63.34
2022-08-28T03:21:00.979Z,63.65
2022-08-28T03:23:28.793Z,63.44
2022-08-28T03:25:56.457Z,64.08
2022-08-28T03:28:24.569Z,63.70
2022-08-28T03:30:52.377Z,64.32
2022-08-28T03:33:20.197Z,63.72
2022-08-28T03:35:47.783Z,63.77
2022-08-28T03:38:17.070Z,63.97
2022-08-28T03:40:45.085Z,63.82
2022-08-28T03:43:13.615Z,63.90
2022-08-28T03:45:41.255Z,64.47
2022-08-28T03:48:09.039Z,63.95
2022-08-28T03:50:37.452Z,64.50
2022-08-28T03:53:05.142Z,64.16
2022-08-28T03:55:32.837Z,64.37
2022-08-28T03:58:01.271Z,64.14
2022-08-28T04:00:29.537Z,64.47
2022-08-28T04:02:58.144Z,64.31
2022-08-28T04:05:25.864Z,64.46
2022-08-28T04:07:53.610Z,64.83
2022-08-28T04:10:21.808Z,64.91
2022-08-28T04:12:49.503Z,64.78
2022-08-28T04:15:17.212Z,64.65
2022-08-28T04:17:44.905Z,65.23
2022-08-28T04:20:12.554Z,65.04
2022-08-28T04:22:40.292Z,65.49
2022-08-28T04:25:08.318Z,65.62
2022-08-28T04:27:36.039Z,65.01
2022-08-28T04:30:03.705Z,65.70
2022-08-28T04:32:31.385Z,65.56
2022-08-28T04:34:59.115Z,66.23
2022-08-28T04:37:27.977Z,66.04
2022-08-28T04:39:56.275Z,66.52
2022-08-28T04:42:24.053Z,66.39
2022-08-28T04:44:51.659Z,66.24
2022-08-28T04:47:19.310Z,66.35
2022-08-28T04:49:47.393Z,66.37
2022-08-28T04:52:15.128Z,66.39
2022-08-28T04:54:42.935Z,66.00
2022-08-28T04:57:10.637Z,66.50
2022-08-28T04:59:39.240Z,65.88
2022-08-28T05:02:07.056Z,66.04
2022-08-28T05:04:34.834Z,65.89
2022-08-28T05:07:02.569Z,66.21
2022-08-28T05:09:32.212Z,65.73
2022-08-28T05:11:59.964Z,65.33
2022-08-28T05:14:27.616Z,65.11
2022-08-28T05:16:57.750Z,65.20
2022-08-28T05:19:26.094Z,64.90
2022-08-28T05:21:53.775Z,64.91
2022-08-28T05:24:21.485Z,64.87
2022-08-28T05:26:49.275Z,64.84
2022-08-28T05:29:18.004Z,64.26
2022-08-28T05:31:45.724Z,64.37
2022-08-28T05:34:14.079Z,64.22
2022-08-28T05:36:41.884Z,64.32
2022-08-28T05:39:09.887Z,64.17
2022-08-28T05:41:37.579Z,64.08
2022-08-28T05:44:05.272Z,63.95
2022-08-28T05:46:32.969Z,63.77
2022-08-28T05:49:01.069Z,63.98
2022-08-28T05:51:28.684Z,63.55
2022-08-28T05:53:56.360Z,63.33
2022-08-28T05:56:23.973Z,63.68
2022-08-28T05:58:52.116Z,63.71
2022-08-28T06:01:19.738Z,63.62
2022-08-28T06:03:47.670Z,63.77
2022-08-28T06:06:15.313Z,63.36
2022-08-28T06:08:56.201Z,63.42
2022-08-28T06:11:27.014Z,63.24
2022-08-28T06:13:58.173Z,62.73
2022-08-28T06:16:26.166Z,63.19
2022-08-28T06:18:53.919Z,63.47
2022-08-28T06:21:21.926Z,63.38
2022-08-28T06:23:49.534Z,63.41
2022-08-28T06:26:17.652Z,63.30
2022-08-28T06:28:45.318Z,63.07
2022-08-28T06:31:24.358Z,62.80
2022-08-28T06:33:54.140Z,62.85
2022-08-28T06:36:21.995Z,63.17
2022-08-28T06:38:51.258Z,62.73
2022-08-28T06:41:19.841Z,62.63
2022-08-28T06:43:47.505Z,62.75
2022-08-28T06:46:15.348Z,62.60
2022-08-28T06:48:43.057Z,62.61
2022-08-28T06:51:10.795Z,62.10
2022-08-28T06:53:38.481Z,61.59
2022-08-28T06:56:08.441Z,62.00
2022-08-28T06:58:36.138Z,61.47
2022-08-28T07:01:03.861Z,61.74
2022-08-28T07:03:31.945Z,61.37
2022-08-28T07:05:59.687Z,61.45
2022-08-28T07:08:27.344Z,61.25
2022-08-28T07:10:55.417Z,60.80
2022-08-28T07:13:23.332Z,60.75
2022-08-28T07:15:51.061Z,60.85
2022-08-28T07:18:18.794Z,60.93
2022-08-28T07:20:46.517Z,60.31
2022-08-28T07:23:14.193Z,60.61
2022-08-28T07:25:42.783Z,60.41
2022-08-28T07:28:10.471Z,60.27
2022-08-28T07:30:38.152Z,60.55
2022-08-28T07:33:05.767Z,60.50
2022-08-28T07:35:33.500Z,60.63
2022-08-28T07:38:01.135Z,60.31
2022-08-28T07:40:29.329Z,60.60
2022-08-28T07:43:14.664Z,60.13
2022-08-28T07:45:42.609Z,60.51
2022-08-28T07:48:11.640Z,60.34
2022-08-28T07:50:39.543Z,59.89
2022-08-28T07:53:09.164Z,60.18
2022-08-28T07:55:36.863Z,59.56
2022-08-28T07:58:05.980Z,58.62
2022-08-28T08:00:33.703Z,58.29
2022-08-28T08:03:01.379Z,57.79
2022-08-28T08:05:29.152Z,57.80
2022-08-28T08:07:56.786Z,57.42
2022-08-28T08:10:24.519Z,57.60
2022-08-28T08:12:52.540Z,57.41
2022-08-28T08:15:21.324Z,57.66
2022-08-28T08:17:49.395Z,57.39
2022-08-28T08:20:17.971Z,57.07
2022-08-28T08:22:45.691Z,56.46
2022-08-28T08:25:13.433Z,56.48
2022-08-28T08:27:43.067Z,56.57
2022-08-28T08:30:11.527Z,55.79
2022-08-28T08:32:40.170Z,56.08
2022-08-28T08:35:08.013Z,56.27
2022-08-28T08:37:35.753Z,56.21
2022-08-28T08:40:06.474Z,56.94
2022-08-28T08:42:38.444Z,56.84
2022-08-28T08:45:07.473Z,56.85
2022-08-28T08:47:35.149Z,56.41
2022-08-28T08:50:02.946Z,55.89
2022-08-28T08:52:30.649Z,55.54
2022-08-28T08:54:59.475Z,55.06
2022-08-28T08:57:27.181Z,54.95
2022-08-28T08:59:54.858Z,54.51
2022-08-28T09:02:22.624Z,54.00
2022-08-28T09:04:59.003Z,54.41
2022-08-28T09:07:26.718Z,54.32
2022-08-28T09:09:54.879Z,53.71
2022-08-28T09:12:23.247Z,53.63
2022-08-28T09:14:50.870Z,54.05
2022-08-28T09:17:18.576Z,53.75
2022-08-28T09:19:46.755Z,54.07
2022-08-28T09:22:14.762Z,53.85
2022-08-28T09:24:42.501Z,53.55
2022-08-28T09:27:14.296Z,53.46
2022-08-28T09:29:43.505Z,52.76
2022-08-28T09:32:11.516Z,52.43
2022-08-28T09:34:39.367Z,52.14
2022-08-28T09:37:08.387Z,51.08
2022-08-28T09:39:37.184Z,51.03
2022-08-28T09:42:22.483Z,51.00
2022-08-28T09:44:51.851Z,50.64
2022-08-28T09:47:20.170Z,50.58
2022-08-28T09:49:48.157Z,50.87
2022-08-28T09:52:15.943Z,50.84
2022-08-28T09:54:44.832Z,51.29
2022-08-28T09:57:12.834Z,51.45
2022-08-28T09:59:40.729Z,51.58
2022-08-28T10:02:10.686Z,51.97
2022-08-28T10:04:38.734Z,51.68
2022-08-28T10:07:06.526Z,51.07
2022-08-28T10:09:34.643Z,51.15
2022-08-28T10:12:02.319Z,50.44
2022-08-28T10:14:30.078Z,50.46
2022-08-28T10:16:57.819Z,49.50
2022-08-28T10:19:25.920Z,48.49
2022-08-28T10:21:53.587Z,47.12
2022-08-28T10:24:24.262Z,46.09
2022-08-28T10:26:55.431Z,45.37
2022-08-28T10:29:23.881Z,45.62
2022-08-28T10:31:51.583Z,45.07
2022-08-28T10:34:19.248Z,43.91
2022-08-28T10:36:46.912Z,42.98
2022-08-28T10:39:14.947Z,42.68
2022-08-28T10:41:42.562Z,41.86
2022-08-28T10:44:10.257Z,40.60
2022-08-28T10:46:37.995Z,40.13
2022-08-28T10:49:07.080Z,39.88
2022-08-28T10:51:36.318Z,39.03
2022-08-28T10:54:06.130Z,38.56
2022-08-28T10:56:33.877Z,37.80
2022-08-28T10:59:02.053Z,37.13
2022-08-28T11:01:29.843Z,38.15
2022-08-28T11:03:57.639Z,37.61
2022-08-28T11:06:25.799Z,37.16
2022-08-28T11:08:53.849Z,36.52
2022-08-28T11:11:21.501Z,36.58
2022-08-28T11:13:49.195Z,36.47
2022-08-28T11:16:17.302Z,35.30
2022-08-28T11:18:45.505Z,35.66
2022-08-28T11:21:13.220Z,35.25
2022-08-28T11:23:40.949Z,35.23
2022-08-28T11:26:09.136Z,33.58
2022-08-28T11:28:36.854Z,34.67
2022-08-28T11:31:04.676Z,33.54
2022-08-28T11:33:32.632Z,33.46
2022-08-28T11:36:00.332Z,34.04
2022-08-28T11:38:27.951Z,33.72
2022-08-28T11:40:56.128Z,33.81
2022-08-28T11:43:23.926Z,33.71
2022-08-28T11:45:51.651Z,33.93
2022-08-28T11:48:19.456Z,33.79
2022-08-28T11:50:48.646Z,33.23
2022-08-28T11:53:16.413Z,32.68
2022-08-28T11:55:44.056Z,33.21
2022-08-28T12:00:38.914Z,33.02
2022-08-28T12:03:06.674Z,32.75
2022-08-28T12:05:34.389Z,32.34
2022-08-28T12:08:02.544Z,32.81
2022-08-28T12:10:31.693Z,32.68
2022-08-28T12:12:59.434Z,32.74
2022-08-28T12:15:27.315Z,32.21
2022-08-28T12:17:54.985Z,32.67
2022-08-28T12:20:23.004Z,33.44
2022-08-28T12:22:53.180Z,32.70
2022-08-28T12:25:20.893Z,31.80
2022-08-28T12:27:48.641Z,31.92
2022-08-28T12:30:16.767Z,31.44
2022-08-28T12:32:44.469Z,31.62
2022-08-28T12:35:12.222Z,31.66
2022-08-28T12:37:52.347Z,31.22
2022-08-28T12:40:21.348Z,31.57
2022-08-28T12:42:53.147Z,31.58
2022-08-28T12:45:23.154Z,32.48
2022-08-28T12:47:51.030Z,33.90
2022-08-28T12:50:18.722Z,34.45
2022-08-28T12:52:46.541Z,34.54
2022-08-28T12:55:14.696Z,35.86
2022-08-28T12:57:42.467Z,36.60
2022-08-28T13:00:10.345Z,37.39
2022-08-28T13:02:38.124Z,37.60
2022-08-28T13:05:05.884Z,37.81
2022-08-28T13:07:34.190Z,38.51
2022-08-28T13:10:03.624Z,38.54
2022-08-28T13:12:54.460Z,38.72
2022-08-28T13:15:24.138Z,38.93
2022-08-28T13:17:52.387Z,39.46
2022-08-28T13:20:20.115Z,39.45
2022-08-28T13:22:50.891Z,40.12
2022-08-28T13:25:19.206Z,40.55
2022-08-28T13:27:46.903Z,40.38
2022-08-28T13:30:14.624Z,40.62
2022-08-28T13:32:42.312Z,40.47
2022-08-28T13:35:10.092Z,40.22
2022-08-28T13:37:37.764Z,39.53
2022-08-28T13:40:13.000Z,39.48
2022-08-28T13:42:47.556Z,38.81
2022-08-28T13:45:15.246Z,38.95
2022-08-28T13:47:43.786Z,38.54
2022-08-28T13:50:11.637Z,38.27
2022-08-28T13:52:39.301Z,38.44
2022-08-28T13:55:08.483Z,38.20
2022-08-28T13:57:38.440Z,38.41
2022-08-28T14:00:06.088Z,38.22
2022-08-28T14:02:51.489Z,37.54
2022-08-28T14:05:19.720Z,37.01
2022-08-28T14:07:49.062Z,36.78
2022-08-28T14:10:16.716Z,35.98
2022-08-28T14:12:46.931Z,35.50
2022-08-28T14:15:14.665Z,35.06
2022-08-28T14:17:42.667Z,35.92
2022-08-28T14:20:10.313Z,35.77
2022-08-28T14:22:38.490Z,35.21
2022-08-28T14:25:06.278Z,35.26
2022-08-28T14:27:34.381Z,34.99
2022-08-28T14:30:02.123Z,34.69
2022-08-28T14:32:29.839Z,35.52
2022-08-28T14:34:57.678Z,34.80
2022-08-28T14:37:25.814Z,35.69
2022-08-28T14:39:53.504Z,35.64
2022-08-28T14:42:21.312Z,35.13
2022-08-28T14:44:49.081Z,34.90
2022-08-28T14:47:17.299Z,34.12
2022-08-28T14:49:45.122Z,34.54
2022-08-28T14:52:12.844Z,34.05
2022-08-28T14:54:40.731Z,33.81
2022-08-28T14:57:08.411Z,34.62
2022-08-28T14:59:36.389Z,34.49
2022-08-28T15:02:04.215Z,33.49
2022-08-28T15:04:34.867Z,33.62
2022-08-28T15:07:03.052Z,33.54
2022-08-28T15:09:30.748Z,34.14
2022-08-28T15:11:58.472Z,33.93
2022-08-28T15:14:26.152Z,33.24
2022-08-28T15:16:54.648Z,33.10
2022-08-28T15:19:23.537Z,33.00
2022-08-28T15:21:51.304Z,32.72
2022-08-28T15:24:19.040Z,32.58
2022-08-28T15:26:47.161Z,32.46
2022-08-28T15:29:15.137Z,31.41
2022-08-28T15:31:43.392Z,31.20
2022-08-28T15:34:13.839Z,31.07
2022-08-28T15:36:44.037Z,31.13
2022-08-28T15:39:29.162Z,30.69
2022-08-28T15:41:56.954Z,31.05
2022-08-28T15:44:25.530Z,31.18
2022-08-28T15:46:53.442Z,30.62
2022-08-28T15:49:23.708Z,30.94
2022-08-28T15:51:52.324Z,30.29
2022-08-28T15:54:20.301Z,30.52
2022-08-28T15:56:49.788Z,29.96
2022-08-28T15:59:20.498Z,30.37
2022-08-28T16:01:48.217Z,29.89
2022-08-28T16:04:16.155Z,30.36
2022-08-28T16:06:43.957Z,30.26
2022-08-28T16:09:12.119Z,29.54
2022-08-28T16:11:41.185Z,29.26
2022-08-28T16:14:08.992Z,30.39
2022-08-28T16:16:36.746Z,31.70
2022-08-28T16:19:04.754Z,33.74
2022-08-28T16:21:32.597Z,35.17
2022-08-28T16:24:00.743Z,36.71
2022-08-28T16:26:28.457Z,37.35
2022-08-28T16:28:56.113Z,38.63
2022-08-28T16:31:23.955Z,39.30
2022-08-28T16:33:51.700Z,39.29
2022-08-28T16:36:19.897Z,39.59
2022-08-28T16:39:00.460Z,40.28
2022-08-28T16:41:31.994Z,40.57
2022-08-28T16:43:59.847Z,41.00
2022-08-28T16:46:28.340Z,40.81
2022-08-28T16:48:56.245Z,41.26
2022-08-28T16:51:27.006Z,41.57
2022-08-28T16:53:54.788Z,41.54
2022-08-28T16:56:23.786Z,42.25
2022-08-28T16:58:53.287Z,42.06
2022-08-28T17:01:22.378Z,41.85
2022-08-28T17:03:52.115Z,42.59
2022-08-28T17:06:19.879Z,42.05
2022-08-28T17:08:48.140Z,42.12
2022-08-28T17:11:15.991Z,42.66
2022-08-28T17:13:43.620Z,42.20
2022-08-28T17:16:11.358Z,42.73
2022-08-28T17:18:39.418Z,42.71
2022-08-28T17:21:32.448Z,43.05
2022-08-28T17:24:00.179Z,42.72
2022-08-28T17:26:28.229Z,43.19
2022-08-28T17:28:55.879Z,43.18
2022-08-28T17:31:23.734Z,43.04
2022-08-28T17:33:51.740Z,43.28
2022-08-28T17:36:32.798Z,43.39
2022-08-28T17:39:02.235Z,43.53
2022-08-28T17:41:29.989Z,43.15
2022-08-28T17:43:57.737Z,43.44
2022-08-28T17:46:26.000Z,43.54
2022-08-28T17:48:55.619Z,43.61
2022-08-28T17:51:42.702Z,43.41
2022-08-28T17:54:12.050Z,43.94
2022-08-28T17:56:40.404Z,44.18
2022-08-28T17:59:08.067Z,43.46
2022-08-28T18:01:36.274Z,44.21
2022-08-28T18:04:05.267Z,43.96
2022-08-28T18:06:33.499Z,44.01
2022-08-28T18:09:02.683Z,44.77
2022-08-28T18:11:30.432Z,44.47
2022-08-28T18:13:59.864Z,44.17
2022-08-28T18:16:31.438Z,44.64
2022-08-28T18:18:59.928Z,44.60
2022-08-28T18:21:27.647Z,44.41
2022-08-28T18:23:55.367Z,44.63
2022-08-28T18:26:23.032Z,44.83
2022-08-28T18:28:51.144Z,45.21
2022-08-28T18:31:18.920Z,45.36
2022-08-28T18:33:46.724Z,45.08
2022-08-28T18:36:14.498Z,45.72
2022-08-28T18:38:42.166Z,45.28
2022-08-28T18:41:10.657Z,45.76
2022-08-28T18:43:38.350Z,45.53
2022-08-28T18:46:06.069Z,45.82
2022-08-28T18:48:33.813Z,45.87
2022-08-28T18:51:01.924Z,46.10
2022-08-28T18:53:30.048Z,45.86
2022-08-28T18:55:57.833Z,46.29
2022-08-28T18:58:29.644Z,46.18
2022-08-28T19:00:58.405Z,46.52
2022-08-28T19:03:26.156Z,46.53
2022-08-28T19:05:55.132Z,46.79
2022-08-28T19:08:22.916Z,46.24
2022-08-28T19:10:50.994Z,46.47
2022-08-28T19:13:18.759Z,46.55
2022-08-28T19:15:46.524Z,46.70
2022-08-28T19:18:14.425Z,46.84
2022-08-28T19:20:43.593Z,46.71
2022-08-28T19:23:15.442Z,46.76
2022-08-28T19:25:44.969Z,46.79
2022-08-28T19:28:12.822Z,46.83
2022-08-28T19:30:41.027Z,47.49
2022-08-28T19:33:08.865Z,47.36
2022-08-28T19:35:36.569Z,47.24
2022-08-28T19:38:04.311Z,47.30
2022-08-28T19:40:33.790Z,47.58
2022-08-28T19:43:01.576Z,47.23
2022-08-28T19:45:29.866Z,47.42
2022-08-28T19:47:57.611Z,47.51
2022-08-28T19:50:25.671Z,47.20
2022-08-28T19:52:53.438Z,47.59
2022-08-28T19:55:21.073Z,47.76
2022-08-28T19:57:49.551Z,47.76
2022-08-28T20:00:19.033Z,47.55
2022-08-28T20:02:46.960Z,48.18
2022-08-28T20:05:14.857Z,48.04
2022-08-28T20:07:42.557Z,48.40
2022-08-28T20:10:10.751Z,48.03
2022-08-28T20:12:38.741Z,47.77
2022-08-28T20:15:13.421Z,48.12
2022-08-28T20:17:45.389Z,48.06
2022-08-28T20:20:17.983Z,48.00
2022-08-28T20:22:45.828Z,48.05
2022-08-28T20:25:13.488Z,48.20
2022-08-28T20:27:42.986Z,48.18
2022-08-28T20:30:11.331Z,48.26
2022-08-28T20:32:40.714Z,48.11
2022-08-28T20:35:09.079Z,48.75
2022-08-28T20:37:45.088Z,48.58
2022-08-28T20:40:13.771Z,48.58
2022-08-28T20:42:41.532Z,48.94
2022-08-28T20:45:09.320Z,49.19
2022-08-28T20:47:37.385Z,48.74
2022-08-28T20:50:05.026Z,48.93
2022-08-28T20:52:32.730Z,49.09
2022-08-28T20:55:00.535Z,48.90
2022-08-28T20:57:28.575Z,49.38
2022-08-28T20:59:56.443Z,49.31
2022-08-28T21:02:24.099Z,48.97
2022-08-28T21:04:52.087Z,49.81
2022-08-28T21:07:20.215Z,50.22
2022-08-28T21:10:05.424Z,49.96
2022-08-28T21:12:35.182Z,50.07
2022-08-28T21:15:04.462Z,49.51
2022-08-28T21:17:32.137Z,49.98
2022-08-28T21:20:00.413Z,50.64
2022-08-28T21:22:28.154Z,50.02
2022-08-28T21:24:57.300Z,50.62
2022-08-28T21:27:24.946Z,50.79
2022-08-28T21:29:52.629Z,50.59
2022-08-28T21:32:20.429Z,51.15
2022-08-28T21:34:48.120Z,51.26
2022-08-28T21:37:15.769Z,51.60
2022-08-28T21:39:43.949Z,51.26
2022-08-28T21:42:11.757Z,51.44
2022-08-28T21:44:39.471Z,51.84
2022-08-28T21:47:08.906Z,51.29
2022-08-28T21:49:37.745Z,51.94
2022-08-28T21:52:06.126Z,51.93
2022-08-28T21:54:33.707Z,51.89
2022-08-28T21:57:01.600Z,51.83
2022-08-28T21:59:35.949Z,52.45
2022-08-28T22:02:05.529Z,51.82
2022-08-28T22:04:33.179Z,52.42
2022-08-28T22:07:00.931Z,52.71
2022-08-28T22:09:29.230Z,52.73
2022-08-28T22:11:57.320Z,52.84
2022-08-28T22:14:26.018Z,52.50
2022-08-28T22:16:53.764Z,52.68
2022-08-28T22:19:21.451Z,52.82
2022-08-28T22:22:21.354Z,52.55
2022-08-28T22:24:49.070Z,52.90
2022-08-28T22:27:17.074Z,52.82
2022-08-28T22:29:45.116Z,53.23
2022-08-28T22:32:12.934Z,53.22
2022-08-28T22:34:40.572Z,53.56
2022-08-28T22:37:08.235Z,53.26
2022-08-28T22:39:36.651Z,53.43
2022-08-28T22:42:04.323Z,53.86
2022-08-28T22:44:32.073Z,53.37
2022-08-28T22:46:59.690Z,53.50
2022-08-28T22:49:27.848Z,53.75
2022-08-28T22:51:55.472Z,53.73
2022-08-28T22:54:23.149Z,54.28
2022-08-28T22:56:50.820Z,54.60
2022-08-28T22:59:19.318Z,54.54
2022-08-28T23:01:47.006Z,54.79
2022-08-28T23:04:14.835Z,54.73
2022-08-28T23:06:42.529Z,54.78
2022-08-28T23:09:11.656Z,54.88
2022-08-28T23:11:39.464Z,55.27
2022-08-28T23:14:07.140Z,55.06
2022-08-28T23:16:35.316Z,55.13
2022-08-28T23:19:08.704Z,55.28
2022-08-28T23:21:39.219Z,55.44
2022-08-28T23:24:11.369Z,55.99
2022-08-28T23:26:39.460Z,55.38
2022-08-28T23:29:07.082Z,55.45
2022-08-28T23:31:34.774Z,55.69
2022-08-28T23:34:02.687Z,55.95
2022-08-28T23:36:32.648Z,56.40
2022-08-28T23:39:03.728Z,56.18
2022-08-28T23:41:31.413Z,56.64
2022-08-28T23:43:59.231Z,56.35
2022-08-28T23:46:27.024Z,56.65
2022-08-28T23:48:55.168Z,56.36
2022-08-28T23:51:23.004Z,56.67
2022-08-28T23:53:52.986Z,57.21
2022-08-28T23:56:20.714Z,56.80
2022-08-28T23:58:51.145Z,57.08
